Terminal Aerodrome Forecast
Issued by NWS Louisville, KY

Home | Current Version | Previous Version | Text Only | Print | Product List | Glossary On
Versions: 1 2 3 4 5 6 7 8 9 10 11 12 13 14 15 16 17 18
470
FTUS43 KLMK 260944 AAA
TAFBWG
TAF AMD
KBWG 260944Z 2610/2706 00000KT 6SM BR SCT090
     FM261100 32010G18KT P6SM VCSH BKN035
     FM261600 34008KT P6SM -SHRA BKN035
      TEMPO 2616/2619 5SM -SHRA BKN025
     FM262100 32009KT P6SM BKN080
     FM270000 34005KT P6SM SKC=

USA.gov is the U.S. government's official web portal to all federal, state and local government web resources and services.